sensor_id;sensor_type;location;lat;lon;timestamp;pressure;altitude;pressure_sealevel;temperature;humidity
49311;BME280;35177;45.900;5.946;2023-02-04T00:00:45;99208.97;;;-3.23;100.00
49311;BME280;35177;45.900;5.946;2023-02-04T00:03:15;99212.59;;;-3.31;100.00
49311;BME280;35177;45.900;5.946;2023-02-04T00:05:42;99216.47;;;-3.25;100.00
49311;BME280;35177;45.900;5.946;2023-02-04T00:08:08;99208.88;;;-3.15;100.00
49311;BME280;35177;45.900;5.946;2023-02-04T00:10:35;99218.69;;;-3.29;100.00
49311;BME280;35177;45.900;5.946;2023-02-04T00:13:02;99205.72;;;-3.57;100.00
49311;BME280;35177;45.900;5.946;2023-02-04T00:15:27;99207.91;;;-3.37;100.00
49311;BME280;35177;45.900;5.946;2023-02-04T00:17:53;99211.53;;;-3.60;100.00
49311;BME280;35177;45.900;5.946;2023-02-04T00:20:18;99207.97;;;-3.60;100.00
49311;BME280;35177;45.900;5.946;2023-02-04T00:22:44;99208.84;;;-3.45;100.00
49311;BME280;35177;45.900;5.946;2023-02-04T00:25:10;99195.91;;;-3.58;100.00
49311;BME280;35177;45.900;5.946;2023-02-04T00:27:36;99193.50;;;-3.37;100.00
49311;BME280;35177;45.900;5.946;2023-02-04T00:30:03;99201.28;;;-3.73;100.00
49311;BME280;35177;45.900;5.946;2023-02-04T00:32:28;99193.78;;;-3.47;100.00
49311;BME280;35177;45.900;5.946;2023-02-04T00:34:54;99198.13;;;-3.23;100.00
49311;BME280;35177;45.900;5.946;2023-02-04T00:37:19;99189.31;;;-3.10;100.00
49311;BME280;35177;45.900;5.946;2023-02-04T00:39:45;99200.28;;;-3.03;100.00
49311;BME280;35177;45.900;5.946;2023-02-04T00:42:10;99204.19;;;-3.21;100.00
49311;BME280;35177;45.900;5.946;2023-02-04T00:44:36;99205.25;;;-3.07;100.00
49311;BME280;35177;45.900;5.946;2023-02-04T00:47:02;99195.28;;;-3.15;100.00
49311;BME280;35177;45.900;5.946;2023-02-04T00:49:27;99184.53;;;-3.23;100.00
49311;BME280;35177;45.900;5.946;2023-02-04T00:51:53;99201.00;;;-3.25;100.00
49311;BME280;35177;45.900;5.946;2023-02-04T00:54:18;99190.06;;;-3.31;100.00
49311;BME280;35177;45.900;5.946;2023-02-04T00:56:44;99197.72;;;-3.50;100.00
49311;BME280;35177;45.900;5.946;2023-02-04T00:59:10;99186.03;;;-3.35;100.00
49311;BME280;35177;45.900;5.946;2023-02-04T01:01:36;99191.72;;;-3.45;100.00
49311;BME280;35177;45.900;5.946;2023-02-04T01:04:01;99190.53;;;-3.28;100.00
49311;BME280;35177;45.900;5.946;2023-02-04T01:06:27;99186.69;;;-3.33;100.00
49311;BME280;35177;45.900;5.946;2023-02-04T01:08:52;99191.25;;;-3.49;100.00
49311;BME280;35177;45.900;5.946;2023-02-04T01:11:18;99196.34;;;-3.69;100.00
49311;BME280;35177;45.900;5.946;2023-02-04T01:13:44;99186.00;;;-3.50;100.00
49311;BME280;35177;45.900;5.946;2023-02-04T01:16:09;99186.38;;;-3.53;100.00
49311;BME280;35177;45.900;5.946;2023-02-04T01:18:35;99185.00;;;-3.73;100.00
49311;BME280;35177;45.900;5.946;2023-02-04T01:21:01;99185.16;;;-3.66;100.00
49311;BME280;35177;45.900;5.946;2023-02-04T01:23:26;99175.06;;;-3.42;100.00
49311;BME280;35177;45.900;5.946;2023-02-04T01:25:52;99169.56;;;-3.49;100.00
49311;BME280;35177;45.900;5.946;2023-02-04T01:28:17;99173.66;;;-3.38;100.00
49311;BME280;35177;45.900;5.946;2023-02-04T01:30:43;99172.88;;;-3.62;100.00
49311;BME280;35177;45.900;5.946;2023-02-04T01:33:08;99161.06;;;-3.84;100.00
49311;BME280;35177;45.900;5.946;2023-02-04T01:35:34;99169.75;;;-3.74;100.00
49311;BME280;35177;45.900;5.946;2023-02-04T01:37:59;99167.22;;;-3.90;100.00
49311;BME280;35177;45.900;5.946;2023-02-04T01:40:25;99162.72;;;-3.98;100.00
49311;BME280;35177;45.900;5.946;2023-02-04T01:42:51;99150.09;;;-3.91;100.00
49311;BME280;35177;45.900;5.946;2023-02-04T01:45:17;99147.56;;;-3.92;100.00
49311;BME280;35177;45.900;5.946;2023-02-04T01:47:43;99155.59;;;-3.99;100.00
49311;BME280;35177;45.900;5.946;2023-02-04T01:50:12;99159.31;;;-4.00;100.00
49311;BME280;35177;45.900;5.946;2023-02-04T01:52:39;99149.22;;;-3.53;100.00
49311;BME280;35177;45.900;5.946;2023-02-04T01:55:18;99147.50;;;-3.69;100.00
49311;BME280;35177;45.900;5.946;2023-02-04T01:57:44;99139.25;;;-3.91;100.00
49311;BME280;35177;45.900;5.946;2023-02-04T02:00:30;99143.22;;;-3.63;100.00
49311;BME280;35177;45.900;5.946;2023-02-04T02:02:57;99139.63;;;-3.79;100.00
49311;BME280;35177;45.900;5.946;2023-02-04T02:05:49;99139.13;;;-3.97;100.00
49311;BME280;35177;45.900;5.946;2023-02-04T02:08:13;99138.84;;;-3.49;100.00
49311;BME280;35177;45.900;5.946;2023-02-04T02:10:41;99137.53;;;-3.68;100.00
49311;BME280;35177;45.900;5.946;2023-02-04T02:13:10;99139.94;;;-3.74;100.00
49311;BME280;35177;45.900;5.946;2023-02-04T02:15:37;99145.31;;;-3.89;100.00
49311;BME280;35177;45.900;5.946;2023-02-04T02:18:03;99138.94;;;-3.96;100.00
49311;BME280;35177;45.900;5.946;2023-02-04T02:20:28;99143.78;;;-4.06;100.00
49311;BME280;35177;45.900;5.946;2023-02-04T02:25:44;99128.03;;;-3.88;100.00
49311;BME280;35177;45.900;5.946;2023-02-04T02:28:12;99126.28;;;-3.65;100.00
49311;BME280;35177;45.900;5.946;2023-02-04T02:30:40;99135.63;;;-3.68;100.00
49311;BME280;35177;45.900;5.946;2023-02-04T02:33:06;99129.72;;;-3.87;100.00
49311;BME280;35177;45.900;5.946;2023-02-04T02:35:32;99132.72;;;-3.81;100.00
49311;BME280;35177;45.900;5.946;2023-02-04T02:37:58;99131.03;;;-3.82;100.00
49311;BME280;35177;45.900;5.946;2023-02-04T02:40:24;99132.72;;;-3.81;100.00
49311;BME280;35177;45.900;5.946;2023-02-04T02:42:50;99133.72;;;-3.97;100.00
49311;BME280;35177;45.900;5.946;2023-02-04T02:45:26;99126.50;;;-4.05;100.00
49311;BME280;35177;45.900;5.946;2023-02-04T02:47:53;99137.59;;;-4.15;100.00
49311;BME280;35177;45.900;5.946;2023-02-04T02:50:23;99132.66;;;-3.73;100.00
49311;BME280;35177;45.900;5.946;2023-02-04T02:52:51;99132.84;;;-3.75;100.00
49311;BME280;35177;45.900;5.946;2023-02-04T02:55:19;99124.00;;;-3.92;100.00
49311;BME280;35177;45.900;5.946;2023-02-04T02:57:47;99129.06;;;-3.74;100.00
49311;BME280;35177;45.900;5.946;2023-02-04T03:00:20;99127.78;;;-3.78;100.00
49311;BME280;35177;45.900;5.946;2023-02-04T03:05:24;99136.31;;;-4.04;100.00
49311;BME280;35177;45.900;5.946;2023-02-04T03:07:50;99133.38;;;-4.17;100.00
49311;BME280;35177;45.900;5.946;2023-02-04T03:10:16;99127.66;;;-4.23;100.00
49311;BME280;35177;45.900;5.946;2023-02-04T03:12:43;99130.00;;;-4.43;100.00
49311;BME280;35177;45.900;5.946;2023-02-04T03:15:09;99120.81;;;-4.33;100.00
49311;BME280;35177;45.900;5.946;2023-02-04T03:17:35;99121.38;;;-4.23;100.00
49311;BME280;35177;45.900;5.946;2023-02-04T03:20:01;99124.28;;;-4.25;100.00
49311;BME280;35177;45.900;5.946;2023-02-04T03:22:27;99122.25;;;-4.46;100.00
49311;BME280;35177;45.900;5.946;2023-02-04T03:24:53;99121.34;;;-4.15;100.00
49311;BME280;35177;45.900;5.946;2023-02-04T03:27:19;99109.22;;;-4.04;100.00
49311;BME280;35177;45.900;5.946;2023-02-04T03:29:45;99126.47;;;-4.43;100.00
49311;BME280;35177;45.900;5.946;2023-02-04T03:32:10;99133.00;;;-4.14;100.00
49311;BME280;35177;45.900;5.946;2023-02-04T03:34:36;99132.53;;;-4.18;100.00
49311;BME280;35177;45.900;5.946;2023-02-04T03:37:02;99126.09;;;-4.17;100.00
49311;BME280;35177;45.900;5.946;2023-02-04T03:39:27;99125.44;;;-4.19;100.00
49311;BME280;35177;45.900;5.946;2023-02-04T03:41:53;99127.16;;;-4.03;100.00
49311;BME280;35177;45.900;5.946;2023-02-04T03:44:18;99128.03;;;-4.26;100.00
49311;BME280;35177;45.900;5.946;2023-02-04T03:46:45;99132.53;;;-4.18;100.00
49311;BME280;35177;45.900;5.946;2023-02-04T03:49:10;99124.38;;;-4.18;100.00
49311;BME280;35177;45.900;5.946;2023-02-04T03:51:36;99127.97;;;-4.17;100.00
49311;BME280;35177;45.900;5.946;2023-02-04T03:54:01;99122.59;;;-4.26;100.00
49311;BME280;35177;45.900;5.946;2023-02-04T03:56:27;99119.22;;;-4.28;100.00
49311;BME280;35177;45.900;5.946;2023-02-04T03:58:52;99129.81;;;-4.18;100.00
49311;BME280;35177;45.900;5.946;2023-02-04T04:01:18;99132.66;;;-4.58;100.00
49311;BME280;35177;45.900;5.946;2023-02-04T04:03:43;99127.06;;;-4.33;100.00
49311;BME280;35177;45.900;5.946;2023-02-04T04:06:09;99128.75;;;-4.32;100.00
49311;BME280;35177;45.900;5.946;2023-02-04T04:08:36;99122.84;;;-4.36;100.00
49311;BME280;35177;45.900;5.946;2023-02-04T04:11:02;99120.41;;;-4.07;100.00
49311;BME280;35177;45.900;5.946;2023-02-04T04:13:28;99121.88;;;-3.81;100.00
49311;BME280;35177;45.900;5.946;2023-02-04T04:15:53;99125.91;;;-3.77;100.00
49311;BME280;35177;45.900;5.946;2023-02-04T04:18:19;99113.09;;;-3.68;100.00
49311;BME280;35177;45.900;5.946;2023-02-04T04:20:44;99117.59;;;-3.61;100.00
49311;BME280;35177;45.900;5.946;2023-02-04T04:23:10;99107.28;;;-3.50;100.00
49311;BME280;35177;45.900;5.946;2023-02-04T04:25:35;99105.72;;;-3.60;100.00
49311;BME280;35177;45.900;5.946;2023-02-04T04:28:01;99116.84;;;-3.55;100.00
49311;BME280;35177;45.900;5.946;2023-02-04T04:30:26;99118.91;;;-3.57;100.00
49311;BME280;35177;45.900;5.946;2023-02-04T04:32:52;99110.47;;;-3.62;100.00
49311;BME280;35177;45.900;5.946;2023-02-04T04:35:17;99115.72;;;-3.60;100.00
49311;BME280;35177;45.900;5.946;2023-02-04T04:37:43;99110.41;;;-3.53;100.00
49311;BME280;35177;45.900;5.946;2023-02-04T04:40:11;99098.53;;;-3.52;100.00
49311;BME280;35177;45.900;5.946;2023-02-04T04:42:36;99104.59;;;-3.65;100.00
49311;BME280;35177;45.900;5.946;2023-02-04T04:45:04;99102.53;;;-3.78;100.00
49311;BME280;35177;45.900;5.946;2023-02-04T04:47:31;99112.16;;;-3.61;100.00
49311;BME280;35177;45.900;5.946;2023-02-04T04:49:57;99107.13;;;-3.49;100.00
49311;BME280;35177;45.900;5.946;2023-02-04T04:52:22;99110.88;;;-3.65;100.00
49311;BME280;35177;45.900;5.946;2023-02-04T04:54:48;99112.44;;;-3.56;100.00
49311;BME280;35177;45.900;5.946;2023-02-04T04:57:13;99115.56;;;-3.59;100.00
49311;BME280;35177;45.900;5.946;2023-02-04T04:59:39;99112.72;;;-3.50;100.00
49311;BME280;35177;45.900;5.946;2023-02-04T05:02:04;99115.56;;;-3.59;100.00
49311;BME280;35177;45.900;5.946;2023-02-04T05:04:30;99123.09;;;-3.69;100.00
49311;BME280;35177;45.900;5.946;2023-02-04T05:06:55;99120.66;;;-3.64;100.00
49311;BME280;35177;45.900;5.946;2023-02-04T05:09:21;99104.66;;;-3.74;100.00
49311;BME280;35177;45.900;5.946;2023-02-04T05:11:46;99106.47;;;-3.66;100.00
49311;BME280;35177;45.900;5.946;2023-02-04T05:14:12;99097.47;;;-3.81;100.00
49311;BME280;35177;45.900;5.946;2023-02-04T05:16:37;99103.75;;;-3.81;100.00
49311;BME280;35177;45.900;5.946;2023-02-04T05:19:03;99089.97;;;-3.94;100.00
49311;BME280;35177;45.900;5.946;2023-02-04T05:21:28;99108.38;;;-3.90;100.00
49311;BME280;35177;45.900;5.946;2023-02-04T05:23:54;99105.63;;;-4.05;100.00
49311;BME280;35177;45.900;5.946;2023-02-04T05:26:19;99119.31;;;-3.98;100.00
49311;BME280;35177;45.900;5.946;2023-02-04T05:28:45;99112.34;;;-3.77;100.00
49311;BME280;35177;45.900;5.946;2023-02-04T05:31:10;99101.13;;;-3.74;100.00
49311;BME280;35177;45.900;5.946;2023-02-04T05:33:36;99107.09;;;-3.79;100.00
49311;BME280;35177;45.900;5.946;2023-02-04T05:36:01;99098.88;;;-3.85;100.00
49311;BME280;35177;45.900;5.946;2023-02-04T05:38:27;99109.72;;;-3.85;100.00
49311;BME280;35177;45.900;5.946;2023-02-04T05:40:52;99107.34;;;-3.89;100.00
49311;BME280;35177;45.900;5.946;2023-02-04T05:43:18;99102.22;;;-3.83;100.00
49311;BME280;35177;45.900;5.946;2023-02-04T05:45:43;99119.69;;;-3.86;100.00
49311;BME280;35177;45.900;5.946;2023-02-04T05:48:09;99129.94;;;-3.73;100.00
49311;BME280;35177;45.900;5.946;2023-02-04T05:50:34;99129.75;;;-3.57;100.00
49311;BME280;35177;45.900;5.946;2023-02-04T05:53:00;99132.84;;;-3.45;100.00
49311;BME280;35177;45.900;5.946;2023-02-04T05:55:25;99134.91;;;-3.47;100.00
49311;BME280;35177;45.900;5.946;2023-02-04T05:57:51;99141.28;;;-3.40;100.00
49311;BME280;35177;45.900;5.946;2023-02-04T06:00:16;99139.44;;;-3.39;100.00
49311;BME280;35177;45.900;5.946;2023-02-04T06:02:42;99134.19;;;-3.26;100.00
49311;BME280;35177;45.900;5.946;2023-02-04T06:05:07;99133.91;;;-3.16;100.00
49311;BME280;35177;45.900;5.946;2023-02-04T06:07:33;99136.88;;;-3.11;100.00
49311;BME280;35177;45.900;5.946;2023-02-04T06:09:58;99142.78;;;-3.07;100.00
49311;BME280;35177;45.900;5.946;2023-02-04T06:12:24;99138.94;;;-3.13;100.00
49311;BME280;35177;45.900;5.946;2023-02-04T06:14:49;99148.03;;;-3.05;100.00
49311;BME280;35177;45.900;5.946;2023-02-04T06:17:15;99155.69;;;-2.94;100.00
49311;BME280;35177;45.900;5.946;2023-02-04T06:19:40;99161.84;;;-2.85;100.00
49311;BME280;35177;45.900;5.946;2023-02-04T06:22:06;99154.72;;;-2.86;100.00
49311;BME280;35177;45.900;5.946;2023-02-04T06:24:31;99149.28;;;-2.86;100.00
49311;BME280;35177;45.900;5.946;2023-02-04T06:26:57;99156.25;;;-2.84;100.00
49311;BME280;35177;45.900;5.946;2023-02-04T06:29:22;99157.78;;;-2.60;100.00
49311;BME280;35177;45.900;5.946;2023-02-04T06:31:47;99149.88;;;-2.54;100.00
49311;BME280;35177;45.900;5.946;2023-02-04T06:34:14;99152.88;;;-2.49;100.00
49311;BME280;35177;45.900;5.946;2023-02-04T06:36:39;99153.16;;;-2.44;100.00
49311;BME280;35177;45.900;5.946;2023-02-04T06:39:05;99157.59;;;-2.36;100.00
49311;BME280;35177;45.900;5.946;2023-02-04T06:41:30;99156.47;;;-2.27;100.00
49311;BME280;35177;45.900;5.946;2023-02-04T06:43:56;99150.00;;;-2.26;100.00
49311;BME280;35177;45.900;5.946;2023-02-04T06:46:21;99156.53;;;-2.42;100.00
49311;BME280;35177;45.900;5.946;2023-02-04T06:48:47;99159.09;;;-2.34;100.00
49311;BME280;35177;45.900;5.946;2023-02-04T06:51:12;99162.22;;;-2.37;100.00
49311;BME280;35177;45.900;5.946;2023-02-04T06:53:38;99165.19;;;-2.32;100.00
49311;BME280;35177;45.900;5.946;2023-02-04T06:56:04;99167.31;;;-2.49;100.00
49311;BME280;35177;45.900;5.946;2023-02-04T06:58:30;99166.94;;;-2.61;100.00
49311;BME280;35177;45.900;5.946;2023-02-04T07:00:55;99164.22;;;-2.61;100.00
49311;BME280;35177;45.900;5.946;2023-02-04T07:03:21;99173.16;;;-2.67;100.00
49311;BME280;35177;45.900;5.946;2023-02-04T07:05:46;99182.63;;;-2.63;100.00
49311;BME280;35177;45.900;5.946;2023-02-04T07:08:12;99174.78;;;-2.72;100.00
49311;BME280;35177;45.900;5.946;2023-02-04T07:10:37;99181.75;;;-2.63;100.00
49311;BME280;35177;45.900;5.946;2023-02-04T07:13:03;99174.66;;;-2.64;100.00
49311;BME280;35177;45.900;5.946;2023-02-04T07:15:28;99176.25;;;-2.70;100.00
49311;BME280;35177;45.900;5.946;2023-02-04T07:17:55;99173.91;;;-2.73;100.00
49311;BME280;35177;45.900;5.946;2023-02-04T07:20:20;99172.97;;;-2.65;100.00
49311;BME280;35177;45.900;5.946;2023-02-04T07:22:46;99166.66;;;-2.51;100.00
49311;BME280;35177;45.900;5.946;2023-02-04T07:25:11;99168.72;;;-2.53;100.00
49311;BME280;35177;45.900;5.946;2023-02-04T07:27:39;99165.88;;;-2.45;100.00
49311;BME280;35177;45.900;5.946;2023-02-04T07:30:05;99176.84;;;-2.38;100.00
49311;BME280;35177;45.900;5.946;2023-02-04T07:32:30;99176.13;;;-2.25;100.00
49311;BME280;35177;45.900;5.946;2023-02-04T07:34:58;99175.19;;;-2.17;100.00
49311;BME280;35177;45.900;5.946;2023-02-04T07:37:28;99180.78;;;-2.19;100.00
49311;BME280;35177;45.900;5.946;2023-02-04T07:39:53;99176.06;;;-1.88;100.00
49311;BME280;35177;45.900;5.946;2023-02-04T07:42:19;99178.53;;;-1.72;100.00
49311;BME280;35177;45.900;5.946;2023-02-04T07:44:44;99179.63;;;-1.38;100.00
49311;BME280;35177;45.900;5.946;2023-02-04T07:47:10;99179.66;;;-1.03;100.00
49311;BME280;35177;45.900;5.946;2023-02-04T07:49:37;99167.53;;;-0.45;100.00
49311;BME280;35177;45.900;5.946;2023-02-04T07:52:03;99164.69;;;-0.03;100.00
49311;BME280;35177;45.900;5.946;2023-02-04T07:54:28;99160.13;;;0.44;100.00
49311;BME280;35177;45.900;5.946;2023-02-04T07:56:54;99155.00;;;0.88;100.00
49311;BME280;35177;45.900;5.946;2023-02-04T07:59:19;99155.75;;;1.22;100.00
49311;BME280;35177;45.900;5.946;2023-02-04T08:01:45;99159.63;;;1.53;100.00
49311;BME280;35177;45.900;5.946;2023-02-04T08:04:12;99168.06;;;1.52;100.00
49311;BME280;35177;45.900;5.946;2023-02-04T08:06:37;99166.59;;;1.49;100.00
49311;BME280;35177;45.900;5.946;2023-02-04T08:09:03;99161.91;;;1.95;100.00
49311;BME280;35177;45.900;5.946;2023-02-04T08:11:28;99164.47;;;1.90;100.00
49311;BME280;35177;45.900;5.946;2023-02-04T08:13:54;99163.78;;;2.01;100.00
49311;BME280;35177;45.900;5.946;2023-02-04T08:16:19;99160.84;;;2.03;100.00
49311;BME280;35177;45.900;5.946;2023-02-04T08:18:45;99167.75;;;1.67;100.00
49311;BME280;35177;45.900;5.946;2023-02-04T08:21:10;99166.88;;;1.80;100.00
49311;BME280;35177;45.900;5.946;2023-02-04T08:23:36;99164.22;;;2.30;100.00
49311;BME280;35177;45.900;5.946;2023-02-04T08:26:07;99163.41;;;3.17;100.00
49311;BME280;35177;45.900;5.946;2023-02-04T08:28:33;99154.50;;;3.71;100.00
49311;BME280;35177;45.900;5.946;2023-02-04T08:30:58;99145.97;;;4.22;100.00
49311;BME280;35177;45.900;5.946;2023-02-04T08:33:24;99139.22;;;4.83;100.00
49311;BME280;35177;45.900;5.946;2023-02-04T08:35:49;99136.97;;;5.33;100.00
49311;BME280;35177;45.900;5.946;2023-02-04T08:38:16;99138.88;;;5.85;100.00
49311;BME280;35177;45.900;5.946;2023-02-04T08:40:43;99148.00;;;6.32;100.00
49311;BME280;35177;45.900;5.946;2023-02-04T08:43:09;99144.84;;;6.57;100.00
49311;BME280;35177;45.900;5.946;2023-02-04T08:45:35;99141.06;;;6.80;100.00
49311;BME280;35177;45.900;5.946;2023-02-04T08:48:00;99137.34;;;7.08;100.00
49311;BME280;35177;45.900;5.946;2023-02-04T08:50:26;99141.41;;;7.23;100.00
49311;BME280;35177;45.900;5.946;2023-02-04T08:52:53;99142.69;;;7.15;100.00
49311;BME280;35177;45.900;5.946;2023-02-04T08:55:18;99144.38;;;7.61;100.00
49311;BME280;35177;45.900;5.946;2023-02-04T08:57:43;99140.09;;;7.97;100.00
49311;BME280;35177;45.900;5.946;2023-02-04T09:00:10;99135.56;;;7.86;100.00
49311;BME280;35177;45.900;5.946;2023-02-04T09:02:36;99137.69;;;7.56;100.00
49311;BME280;35177;45.900;5.946;2023-02-04T09:05:01;99137.31;;;7.97;100.00
49311;BME280;35177;45.900;5.946;2023-02-04T09:07:27;99132.97;;;8.01;100.00
49311;BME280;35177;45.900;5.946;2023-02-04T09:09:53;99125.28;;;8.68;100.00
49311;BME280;35177;45.900;5.946;2023-02-04T09:12:18;99124.63;;;9.47;100.00
49311;BME280;35177;45.900;5.946;2023-02-04T09:14:44;99121.69;;;9.69;96.99
49311;BME280;35177;45.900;5.946;2023-02-04T09:17:09;99128.97;;;9.96;96.03
49311;BME280;35177;45.900;5.946;2023-02-04T09:19:35;99125.16;;;10.28;90.25
49311;BME280;35177;45.900;5.946;2023-02-04T09:22:00;99128.50;;;10.87;86.20
49311;BME280;35177;45.900;5.946;2023-02-04T09:24:26;99131.53;;;10.34;87.66
49311;BME280;35177;45.900;5.946;2023-02-04T09:26:51;99133.47;;;10.18;90.22
49311;BME280;35177;45.900;5.946;2023-02-04T09:29:17;99126.78;;;11.17;82.49
49311;BME280;35177;45.900;5.946;2023-02-04T09:31:43;99124.88;;;11.02;85.05
49311;BME280;35177;45.900;5.946;2023-02-04T09:34:08;99131.38;;;11.57;81.88
49311;BME280;35177;45.900;5.946;2023-02-04T09:36:34;99124.00;;;11.27;84.29
49311;BME280;35177;45.900;5.946;2023-02-04T09:39:05;99119.72;;;12.56;71.38
49311;BME280;35177;45.900;5.946;2023-02-04T09:41:32;99136.31;;;11.81;70.55
49311;BME280;35177;45.900;5.946;2023-02-04T09:43:58;99125.59;;;12.83;67.47
49311;BME280;35177;45.900;5.946;2023-02-04T09:46:25;99118.94;;;12.50;68.24
49311;BME280;35177;45.900;5.946;2023-02-04T09:48:57;99118.78;;;12.65;62.94
49311;BME280;35177;45.900;5.946;2023-02-04T09:51:26;99129.28;;;12.44;66.38
49311;BME280;35177;45.900;5.946;2023-02-04T09:53:53;99130.81;;;13.20;61.17
49311;BME280;35177;45.900;5.946;2023-02-04T09:56:20;99127.34;;;11.95;90.55
49311;BME280;35177;45.900;5.946;2023-02-04T09:58:45;99124.38;;;12.95;89.87
49311;BME280;35177;45.900;5.946;2023-02-04T10:01:16;99124.84;;;12.73;88.49
49311;BME280;35177;45.900;5.946;2023-02-04T10:03:44;99121.06;;;12.24;96.80
49311;BME280;35177;45.900;5.946;2023-02-04T10:06:20;99116.38;;;12.53;92.34
49311;BME280;35177;45.900;5.946;2023-02-04T10:08:47;99119.94;;;12.94;93.25
49311;BME280;35177;45.900;5.946;2023-02-04T10:11:13;99126.13;;;12.56;88.45
49311;BME280;35177;45.900;5.946;2023-02-04T10:13:43;99127.34;;;12.74;91.12
49311;BME280;35177;45.900;5.946;2023-02-04T10:16:25;99131.66;;;13.49;81.05
49311;BME280;35177;45.900;5.946;2023-02-04T10:18:59;99129.28;;;13.62;86.71
49311;BME280;35177;45.900;5.946;2023-02-04T10:21:30;99133.78;;;12.75;89.42
49311;BME280;35177;45.900;5.946;2023-02-04T10:23:57;99126.84;;;13.01;91.84
49311;BME280;35177;45.900;5.946;2023-02-04T10:26:28;99121.06;;;13.46;91.62
49311;BME280;35177;45.900;5.946;2023-02-04T10:29:02;99122.25;;;13.40;89.07
49311;BME280;35177;45.900;5.946;2023-02-04T10:31:29;99123.69;;;13.38;81.64
49311;BME280;35177;45.900;5.946;2023-02-04T10:34:19;99115.69;;;13.01;89.18
49311;BME280;35177;45.900;5.946;2023-02-04T10:36:48;99115.75;;;12.27;98.20
49311;BME280;35177;45.900;5.946;2023-02-04T10:39:19;99119.34;;;12.28;100.00
49311;BME280;35177;45.900;5.946;2023-02-04T10:42:21;99115.44;;;12.63;100.00
49311;BME280;35177;45.900;5.946;2023-02-04T10:44:47;99109.56;;;11.85;100.00
49311;BME280;35177;45.900;5.946;2023-02-04T10:47:24;99108.50;;;11.81;100.00
49311;BME280;35177;45.900;5.946;2023-02-04T10:52:18;99093.38;;;11.98;100.00
49311;BME280;35177;45.900;5.946;2023-02-04T10:54:46;99084.47;;;12.41;100.00
49311;BME280;35177;45.900;5.946;2023-02-04T10:57:20;99097.31;;;11.86;100.00
49311;BME280;35177;45.900;5.946;2023-02-04T10:59:49;99080.53;;;12.07;100.00
49311;BME280;35177;45.900;5.946;2023-02-04T11:04:54;99069.22;;;12.33;100.00
49311;BME280;35177;45.900;5.946;2023-02-04T11:07:21;99066.25;;;12.53;100.00
49311;BME280;35177;45.900;5.946;2023-02-04T11:09:47;99067.72;;;12.75;100.00
49311;BME280;35177;45.900;5.946;2023-02-04T11:15:04;99063.84;;;12.07;100.00
49311;BME280;35177;45.900;5.946;2023-02-04T11:17:31;99057.25;;;12.62;100.00
49311;BME280;35177;45.900;5.946;2023-02-04T11:19:58;99054.19;;;12.34;100.00
49311;BME280;35177;45.900;5.946;2023-02-04T11:22:40;99035.25;;;12.31;100.00
49311;BME280;35177;45.900;5.946;2023-02-04T11:25:32;99047.47;;;12.35;100.00
49311;BME280;35177;45.900;5.946;2023-02-04T11:27:58;99053.97;;;11.80;100.00
49311;BME280;35177;45.900;5.946;2023-02-04T11:30:30;99049.84;;;11.72;100.00
49311;BME280;35177;45.900;5.946;2023-02-04T11:33:05;99044.00;;;11.74;100.00
49311;BME280;35177;45.900;5.946;2023-02-04T11:35:31;99027.38;;;12.09;100.00
49311;BME280;35177;45.900;5.946;2023-02-04T11:37:57;99031.03;;;12.04;100.00
49311;BME280;35177;45.900;5.946;2023-02-04T11:42:49;99019.72;;;11.85;100.00
49311;BME280;35177;45.900;5.946;2023-02-04T11:45:24;99022.25;;;11.81;100.00
49311;BME280;35177;45.900;5.946;2023-02-04T11:47:51;99022.22;;;11.36;100.00
49311;BME280;35177;45.900;5.946;2023-02-04T11:50:21;99020.97;;;11.63;100.00
49311;BME280;35177;45.900;5.946;2023-02-04T11:52:49;99016.63;;;11.47;100.00
49311;BME280;35177;45.900;5.946;2023-02-04T11:55:14;99009.09;;;11.47;100.00
49311;BME280;35177;45.900;5.946;2023-02-04T11:57:42;99014.63;;;11.52;100.00
49311;BME280;35177;45.900;5.946;2023-02-04T12:00:21;99005.50;;;11.47;100.00
49311;BME280;35177;45.900;5.946;2023-02-04T12:02:50;99001.16;;;11.70;100.00
49311;BME280;35177;45.900;5.946;2023-02-04T12:05:19;99006.06;;;11.44;100.00
49311;BME280;35177;45.900;5.946;2023-02-04T12:07:46;98999.66;;;11.48;100.00
49311;BME280;35177;45.900;5.946;2023-02-04T12:10:25;98997.19;;;11.36;100.00
49311;BME280;35177;45.900;5.946;2023-02-04T12:12:55;98998.94;;;11.27;100.00
49311;BME280;35177;45.900;5.946;2023-02-04T12:15:30;99009.63;;;10.94;100.00
49311;BME280;35177;45.900;5.946;2023-02-04T12:20:28;98982.00;;;11.23;100.00
49311;BME280;35177;45.900;5.946;2023-02-04T12:22:54;98984.75;;;11.29;100.00
49311;BME280;35177;45.900;5.946;2023-02-04T12:25:20;98985.38;;;11.15;100.00
49311;BME280;35177;45.900;5.946;2023-02-04T12:27:45;98975.28;;;11.30;100.00
49311;BME280;35177;45.900;5.946;2023-02-04T12:30:11;98976.38;;;11.34;100.00
49311;BME280;35177;45.900;5.946;2023-02-04T12:32:37;98969.19;;;11.28;100.00
49311;BME280;35177;45.900;5.946;2023-02-04T12:35:03;98968.50;;;11.01;100.00
49311;BME280;35177;45.900;5.946;2023-02-04T12:37:28;98975.16;;;11.00;100.00
49311;BME280;35177;45.900;5.946;2023-02-04T12:39:54;98972.59;;;11.09;100.00
49311;BME280;35177;45.900;5.946;2023-02-04T12:42:19;98964.63;;;10.92;100.00
49311;BME280;35177;45.900;5.946;2023-02-04T12:44:45;98962.69;;;10.87;100.00
49311;BME280;35177;45.900;5.946;2023-02-04T12:47:10;98961.28;;;10.95;100.00
49311;BME280;35177;45.900;5.946;2023-02-04T12:49:36;98962.94;;;10.96;100.00
49311;BME280;35177;45.900;5.946;2023-02-04T12:52:03;98966.31;;;10.88;100.00
49311;BME280;35177;45.900;5.946;2023-02-04T12:54:29;98963.53;;;10.83;100.00
49311;BME280;35177;45.900;5.946;2023-02-04T12:56:54;98973.81;;;10.82;100.00
49311;BME280;35177;45.900;5.946;2023-02-04T12:59:23;98966.34;;;10.77;100.00
49311;BME280;35177;45.900;5.946;2023-02-04T13:01:49;98961.91;;;10.82;100.00
49311;BME280;35177;45.900;5.946;2023-02-04T13:04:14;98962.66;;;10.98;100.00
49311;BME280;35177;45.900;5.946;2023-02-04T13:06:40;98954.28;;;11.08;100.00
49311;BME280;35177;45.900;5.946;2023-02-04T13:09:05;98957.66;;;10.95;100.00